sensor_id;sensor_type;location;lat;lon;timestamp;temperature;humidity
55830;DHT22;41759;53.330;6.002;2024-03-02T00:00:03;8.20;99.90
55830;DHT22;41759;53.330;6.002;2024-03-02T00:02:49;8.20;99.90
55830;DHT22;41759;53.330;6.002;2024-03-02T00:05:20;8.10;99.90
55830;DHT22;41759;53.330;6.002;2024-03-02T00:07:57;8.10;99.90
55830;DHT22;41759;53.330;6.002;2024-03-02T00:10:26;8.10;99.90
55830;DHT22;41759;53.330;6.002;2024-03-02T00:12:58;8.10;99.90
55830;DHT22;41759;53.330;6.002;2024-03-02T00:15:53;8.10;99.90
55830;DHT22;41759;53.330;6.002;2024-03-02T00:18:25;8.10;99.90
55830;DHT22;41759;53.330;6.002;2024-03-02T00:20:53;8.00;99.90
55830;DHT22;41759;53.330;6.002;2024-03-02T00:23:20;8.10;99.90
55830;DHT22;41759;53.330;6.002;2024-03-02T00:25:52;8.20;99.90
55830;DHT22;41759;53.330;6.002;2024-03-02T00:28:25;8.00;99.90
55830;DHT22;41759;53.330;6.002;2024-03-02T00:31:09;8.10;99.90
55830;DHT22;41759;53.330;6.002;2024-03-02T00:33:45;8.10;99.90
55830;DHT22;41759;53.330;6.002;2024-03-02T00:36:16;8.10;99.90
55830;DHT22;41759;53.330;6.002;2024-03-02T00:38:53;8.20;99.90
55830;DHT22;41759;53.330;6.002;2024-03-02T00:41:31;8.20;99.90
55830;DHT22;41759;53.330;6.002;2024-03-02T00:44:00;8.20;99.90
55830;DHT22;41759;53.330;6.002;2024-03-02T00:46:29;8.20;99.90
55830;DHT22;41759;53.330;6.002;2024-03-02T00:48:57;8.30;99.90
55830;DHT22;41759;53.330;6.002;2024-03-02T00:51:26;8.20;99.90
55830;DHT22;41759;53.330;6.002;2024-03-02T00:53:53;9.70;99.90
55830;DHT22;41759;53.330;6.002;2024-03-02T00:56:22;8.20;99.90
55830;DHT22;41759;53.330;6.002;2024-03-02T00:58:48;8.30;99.90
55830;DHT22;41759;53.330;6.002;2024-03-02T01:01:14;8.30;99.90
55830;DHT22;41759;53.330;6.002;2024-03-02T01:03:41;8.20;99.90
55830;DHT22;41759;53.330;6.002;2024-03-02T01:06:07;8.30;99.90
55830;DHT22;41759;53.330;6.002;2024-03-02T01:08:34;9.70;99.90
55830;DHT22;41759;53.330;6.002;2024-03-02T01:11:00;8.20;99.90
55830;DHT22;41759;53.330;6.002;2024-03-02T01:13:26;8.30;99.90
55830;DHT22;41759;53.330;6.002;2024-03-02T01:15:51;8.20;99.90
55830;DHT22;41759;53.330;6.002;2024-03-02T01:18:17;8.20;99.90
55830;DHT22;41759;53.330;6.002;2024-03-02T01:20:43;8.20;99.90
55830;DHT22;41759;53.330;6.002;2024-03-02T01:23:08;8.20;99.90
55830;DHT22;41759;53.330;6.002;2024-03-02T01:25:34;8.20;99.90
55830;DHT22;41759;53.330;6.002;2024-03-02T01:28:01;8.20;99.90
55830;DHT22;41759;53.330;6.002;2024-03-02T01:30:26;8.20;99.90
55830;DHT22;41759;53.330;6.002;2024-03-02T01:32:52;8.20;99.90
55830;DHT22;41759;53.330;6.002;2024-03-02T01:35:18;9.20;99.90
55830;DHT22;41759;53.330;6.002;2024-03-02T01:37:44;8.20;99.90
55830;DHT22;41759;53.330;6.002;2024-03-02T01:40:10;8.20;99.90
55830;DHT22;41759;53.330;6.002;2024-03-02T01:42:37;8.20;99.90
55830;DHT22;41759;53.330;6.002;2024-03-02T01:45:09;8.20;99.90
55830;DHT22;41759;53.330;6.002;2024-03-02T01:47:35;8.20;99.90
55830;DHT22;41759;53.330;6.002;2024-03-02T01:50:01;8.40;99.90
55830;DHT22;41759;53.330;6.002;2024-03-02T01:52:27;8.20;99.90
55830;DHT22;41759;53.330;6.002;2024-03-02T01:54:53;9.00;99.90
55830;DHT22;41759;53.330;6.002;2024-03-02T01:57:19;8.90;99.90
55830;DHT22;41759;53.330;6.002;2024-03-02T01:59:45;8.30;99.90
55830;DHT22;41759;53.330;6.002;2024-03-02T02:02:13;8.90;99.90
55830;DHT22;41759;53.330;6.002;2024-03-02T02:04:39;8.30;99.90
55830;DHT22;41759;53.330;6.002;2024-03-02T02:07:05;8.80;99.90
55830;DHT22;41759;53.330;6.002;2024-03-02T02:09:32;8.30;99.90
55830;DHT22;41759;53.330;6.002;2024-03-02T02:11:57;8.40;99.90
55830;DHT22;41759;53.330;6.002;2024-03-02T02:14:24;8.20;99.90
55830;DHT22;41759;53.330;6.002;2024-03-02T02:16:49;8.20;99.90
55830;DHT22;41759;53.330;6.002;2024-03-02T02:19:15;8.20;99.90
55830;DHT22;41759;53.330;6.002;2024-03-02T02:21:44;8.20;99.90
55830;DHT22;41759;53.330;6.002;2024-03-02T02:24:10;8.20;99.90
55830;DHT22;41759;53.330;6.002;2024-03-02T02:26:35;8.20;99.90
55830;DHT22;41759;53.330;6.002;2024-03-02T02:29:01;8.50;99.90
55830;DHT22;41759;53.330;6.002;2024-03-02T02:31:42;8.50;99.90
55830;DHT22;41759;53.330;6.002;2024-03-02T02:34:08;8.20;99.90
55830;DHT22;41759;53.330;6.002;2024-03-02T02:36:37;8.20;99.90
55830;DHT22;41759;53.330;6.002;2024-03-02T02:39:05;8.20;99.90
55830;DHT22;41759;53.330;6.002;2024-03-02T02:41:32;8.20;99.90
55830;DHT22;41759;53.330;6.002;2024-03-02T02:43:58;8.30;99.90
55830;DHT22;41759;53.330;6.002;2024-03-02T02:46:23;8.40;99.90
55830;DHT22;41759;53.330;6.002;2024-03-02T02:48:49;9.10;99.90
55830;DHT22;41759;53.330;6.002;2024-03-02T02:51:16;8.80;99.90
55830;DHT22;41759;53.330;6.002;2024-03-02T02:53:42;8.40;99.90
55830;DHT22;41759;53.330;6.002;2024-03-02T02:56:08;8.50;99.90
55830;DHT22;41759;53.330;6.002;2024-03-02T02:58:33;8.50;99.90
55830;DHT22;41759;53.330;6.002;2024-03-02T03:00:59;8.40;99.90
55830;DHT22;41759;53.330;6.002;2024-03-02T03:03:24;8.40;99.90
55830;DHT22;41759;53.330;6.002;2024-03-02T03:05:50;8.80;99.90
55830;DHT22;41759;53.330;6.002;2024-03-02T03:08:16;8.50;99.90
55830;DHT22;41759;53.330;6.002;2024-03-02T03:10:42;9.50;99.90
55830;DHT22;41759;53.330;6.002;2024-03-02T03:13:07;8.50;99.90
55830;DHT22;41759;53.330;6.002;2024-03-02T03:15:37;8.50;99.90
55830;DHT22;41759;53.330;6.002;2024-03-02T03:18:03;8.50;99.90
55830;DHT22;41759;53.330;6.002;2024-03-02T03:20:30;8.40;99.90
55830;DHT22;41759;53.330;6.002;2024-03-02T03:22:56;9.70;99.90
55830;DHT22;41759;53.330;6.002;2024-03-02T03:25:22;8.40;99.90
55830;DHT22;41759;53.330;6.002;2024-03-02T03:27:48;8.40;99.90
55830;DHT22;41759;53.330;6.002;2024-03-02T03:30:14;8.70;99.90
55830;DHT22;41759;53.330;6.002;2024-03-02T03:32:40;8.30;99.90
55830;DHT22;41759;53.330;6.002;2024-03-02T03:35:06;8.70;99.90
55830;DHT22;41759;53.330;6.002;2024-03-02T03:37:32;8.10;99.90
55830;DHT22;41759;53.330;6.002;2024-03-02T03:40:07;8.10;99.90
55830;DHT22;41759;53.330;6.002;2024-03-02T03:42:37;8.10;99.90
55830;DHT22;41759;53.330;6.002;2024-03-02T03:45:03;8.00;99.90
55830;DHT22;41759;53.330;6.002;2024-03-02T03:47:31;8.00;99.90
55830;DHT22;41759;53.330;6.002;2024-03-02T03:49:57;8.00;99.90
55830;DHT22;41759;53.330;6.002;2024-03-02T03:52:23;8.00;99.90
55830;DHT22;41759;53.330;6.002;2024-03-02T03:54:49;8.30;99.90
55830;DHT22;41759;53.330;6.002;2024-03-02T03:57:15;8.90;99.90
55830;DHT22;41759;53.330;6.002;2024-03-02T03:59:41;8.00;99.90
55830;DHT22;41759;53.330;6.002;2024-03-02T04:02:08;8.00;99.90
55830;DHT22;41759;53.330;6.002;2024-03-02T04:04:34;8.50;99.90
55830;DHT22;41759;53.330;6.002;2024-03-02T04:07:00;7.90;99.90
55830;DHT22;41759;53.330;6.002;2024-03-02T04:09:26;8.70;99.90
55830;DHT22;41759;53.330;6.002;2024-03-02T04:11:51;7.90;99.90
55830;DHT22;41759;53.330;6.002;2024-03-02T04:14:17;7.90;99.90
55830;DHT22;41759;53.330;6.002;2024-03-02T04:16:43;7.90;99.90
55830;DHT22;41759;53.330;6.002;2024-03-02T04:19:08;7.90;99.90
55830;DHT22;41759;53.330;6.002;2024-03-02T04:21:34;7.90;99.90
55830;DHT22;41759;53.330;6.002;2024-03-02T04:24:00;7.90;99.90
55830;DHT22;41759;53.330;6.002;2024-03-02T04:26:26;8.50;99.90
55830;DHT22;41759;53.330;6.002;2024-03-02T04:28:52;7.70;99.90
55830;DHT22;41759;53.330;6.002;2024-03-02T04:31:19;8.90;99.90
55830;DHT22;41759;53.330;6.002;2024-03-02T04:33:45;7.70;99.90
55830;DHT22;41759;53.330;6.002;2024-03-02T04:36:10;7.60;99.90
55830;DHT22;41759;53.330;6.002;2024-03-02T04:38:37;7.60;99.90
55830;DHT22;41759;53.330;6.002;2024-03-02T04:41:06;7.60;99.90
55830;DHT22;41759;53.330;6.002;2024-03-02T04:43:33;7.50;99.90
55830;DHT22;41759;53.330;6.002;2024-03-02T04:45:59;7.50;99.90
55830;DHT22;41759;53.330;6.002;2024-03-02T04:48:25;8.40;99.90
55830;DHT22;41759;53.330;6.002;2024-03-02T04:50:50;7.60;99.90
55830;DHT22;41759;53.330;6.002;2024-03-02T04:53:16;7.50;99.90
55830;DHT22;41759;53.330;6.002;2024-03-02T04:55:42;8.50;99.90
55830;DHT22;41759;53.330;6.002;2024-03-02T04:58:07;7.50;99.90
55830;DHT22;41759;53.330;6.002;2024-03-02T05:00:34;7.60;99.90
55830;DHT22;41759;53.330;6.002;2024-03-02T05:03:00;7.40;99.90
55830;DHT22;41759;53.330;6.002;2024-03-02T05:05:25;7.50;99.90
55830;DHT22;41759;53.330;6.002;2024-03-02T05:07:52;7.50;99.90
55830;DHT22;41759;53.330;6.002;2024-03-02T05:10:17;7.50;99.90
55830;DHT22;41759;53.330;6.002;2024-03-02T05:12:43;7.50;99.90
55830;DHT22;41759;53.330;6.002;2024-03-02T05:15:13;7.50;99.90
55830;DHT22;41759;53.330;6.002;2024-03-02T05:17:39;7.40;99.90
55830;DHT22;41759;53.330;6.002;2024-03-02T05:20:06;7.60;99.90
55830;DHT22;41759;53.330;6.002;2024-03-02T05:22:33;7.40;99.90
55830;DHT22;41759;53.330;6.002;2024-03-02T05:25:00;8.60;99.90
55830;DHT22;41759;53.330;6.002;2024-03-02T05:27:26;8.30;99.90
55830;DHT22;41759;53.330;6.002;2024-03-02T05:29:52;7.30;99.90
55830;DHT22;41759;53.330;6.002;2024-03-02T05:32:18;7.60;99.90
55830;DHT22;41759;53.330;6.002;2024-03-02T05:34:44;7.80;99.90
55830;DHT22;41759;53.330;6.002;2024-03-02T05:37:09;7.10;99.90
55830;DHT22;41759;53.330;6.002;2024-03-02T05:39:35;8.20;99.90
55830;DHT22;41759;53.330;6.002;2024-03-02T05:42:01;7.00;99.90
55830;DHT22;41759;53.330;6.002;2024-03-02T05:44:26;7.00;99.90
55830;DHT22;41759;53.330;6.002;2024-03-02T05:46:52;7.00;99.90
55830;DHT22;41759;53.330;6.002;2024-03-02T05:49:18;6.90;99.90
55830;DHT22;41759;53.330;6.002;2024-03-02T05:51:43;6.80;99.90
55830;DHT22;41759;53.330;6.002;2024-03-02T05:54:09;6.80;99.90
55830;DHT22;41759;53.330;6.002;2024-03-02T05:56:35;6.70;99.90
55830;DHT22;41759;53.330;6.002;2024-03-02T05:59:00;7.70;99.90
55830;DHT22;41759;53.330;6.002;2024-03-02T06:01:35;6.70;99.90
55830;DHT22;41759;53.330;6.002;2024-03-02T06:04:01;6.70;99.90
55830;DHT22;41759;53.330;6.002;2024-03-02T06:06:26;7.50;99.90
55830;DHT22;41759;53.330;6.002;2024-03-02T06:08:53;6.60;99.90
55830;DHT22;41759;53.330;6.002;2024-03-02T06:11:19;6.60;99.90
55830;DHT22;41759;53.330;6.002;2024-03-02T06:13:45;6.20;99.90
55830;DHT22;41759;53.330;6.002;2024-03-02T06:16:10;6.50;99.90
55830;DHT22;41759;53.330;6.002;2024-03-02T06:18:36;6.50;99.90
55830;DHT22;41759;53.330;6.002;2024-03-02T06:21:02;6.60;99.90
55830;DHT22;41759;53.330;6.002;2024-03-02T06:23:28;6.40;99.90
55830;DHT22;41759;53.330;6.002;2024-03-02T06:25:54;6.40;99.90
55830;DHT22;41759;53.330;6.002;2024-03-02T06:28:19;6.40;99.90
55830;DHT22;41759;53.330;6.002;2024-03-02T06:30:46;6.30;99.90
55830;DHT22;41759;53.330;6.002;2024-03-02T06:33:11;6.30;99.90
55830;DHT22;41759;53.330;6.002;2024-03-02T06:35:37;6.30;99.90
55830;DHT22;41759;53.330;6.002;2024-03-02T06:38:03;6.60;99.90
55830;DHT22;41759;53.330;6.002;2024-03-02T06:40:29;6.30;99.90
55830;DHT22;41759;53.330;6.002;2024-03-02T06:42:55;6.60;99.90
55830;DHT22;41759;53.330;6.002;2024-03-02T06:45:20;7.20;99.90
55830;DHT22;41759;53.330;6.002;2024-03-02T06:47:46;6.40;99.90
55830;DHT22;41759;53.330;6.002;2024-03-02T06:50:11;6.50;99.90
55830;DHT22;41759;53.330;6.002;2024-03-02T06:52:37;6.60;99.90
55830;DHT22;41759;53.330;6.002;2024-03-02T06:55:04;7.40;99.90
55830;DHT22;41759;53.330;6.002;2024-03-02T06:57:30;6.70;99.90
55830;DHT22;41759;53.330;6.002;2024-03-02T06:59:56;6.80;99.90
55830;DHT22;41759;53.330;6.002;2024-03-02T07:02:24;6.90;99.90
55830;DHT22;41759;53.330;6.002;2024-03-02T07:04:52;7.00;99.90
55830;DHT22;41759;53.330;6.002;2024-03-02T07:07:18;7.00;99.90
55830;DHT22;41759;53.330;6.002;2024-03-02T07:09:44;7.00;99.90
55830;DHT22;41759;53.330;6.002;2024-03-02T07:12:09;7.10;99.90
55830;DHT22;41759;53.330;6.002;2024-03-02T07:14:35;7.10;99.90
55830;DHT22;41759;53.330;6.002;2024-03-02T07:17:33;7.10;99.90
55830;DHT22;41759;53.330;6.002;2024-03-02T07:19:59;7.10;99.90
55830;DHT22;41759;53.330;6.002;2024-03-02T07:22:24;7.60;99.90
55830;DHT22;41759;53.330;6.002;2024-03-02T07:24:50;8.30;99.90
55830;DHT22;41759;53.330;6.002;2024-03-02T07:27:17;8.50;99.90
55830;DHT22;41759;53.330;6.002;2024-03-02T07:29:43;8.70;99.90
55830;DHT22;41759;53.330;6.002;2024-03-02T07:32:09;8.60;99.90
55830;DHT22;41759;53.330;6.002;2024-03-02T07:34:36;8.60;99.90
55830;DHT22;41759;53.330;6.002;2024-03-02T07:37:03;9.50;99.90
55830;DHT22;41759;53.330;6.002;2024-03-02T07:39:29;10.40;99.90
55830;DHT22;41759;53.330;6.002;2024-03-02T07:41:55;11.30;99.90
55830;DHT22;41759;53.330;6.002;2024-03-02T07:44:21;12.20;99.90
55830;DHT22;41759;53.330;6.002;2024-03-02T07:46:47;12.80;99.90
55830;DHT22;41759;53.330;6.002;2024-03-02T07:49:13;13.50;99.90
55830;DHT22;41759;53.330;6.002;2024-03-02T07:51:42;14.10;99.90
55830;DHT22;41759;53.330;6.002;2024-03-02T07:54:08;14.60;99.90
55830;DHT22;41759;53.330;6.002;2024-03-02T07:56:34;14.90;99.90
55830;DHT22;41759;53.330;6.002;2024-03-02T07:59:01;15.20;99.90
55830;DHT22;41759;53.330;6.002;2024-03-02T08:01:28;15.50;99.90
55830;DHT22;41759;53.330;6.002;2024-03-02T08:03:59;15.70;99.90
55830;DHT22;41759;53.330;6.002;2024-03-02T08:06:27;15.80;99.90
55830;DHT22;41759;53.330;6.002;2024-03-02T08:08:59;16.00;99.90
55830;DHT22;41759;53.330;6.002;2024-03-02T08:11:26;16.40;99.90
55830;DHT22;41759;53.330;6.002;2024-03-02T08:13:56;16.60;99.90
55830;DHT22;41759;53.330;6.002;2024-03-02T08:16:25;16.80;99.90
55830;DHT22;41759;53.330;6.002;2024-03-02T08:18:51;17.00;99.90
55830;DHT22;41759;53.330;6.002;2024-03-02T08:21:17;17.30;99.90
55830;DHT22;41759;53.330;6.002;2024-03-02T08:23:43;17.30;99.90
55830;DHT22;41759;53.330;6.002;2024-03-02T08:26:10;17.50;99.90
55830;DHT22;41759;53.330;6.002;2024-03-02T08:28:36;17.70;99.90
55830;DHT22;41759;53.330;6.002;2024-03-02T08:31:08;17.60;99.90
55830;DHT22;41759;53.330;6.002;2024-03-02T08:33:34;17.00;99.90
55830;DHT22;41759;53.330;6.002;2024-03-02T08:36:00;16.40;99.90
55830;DHT22;41759;53.330;6.002;2024-03-02T08:38:26;15.40;99.90
55830;DHT22;41759;53.330;6.002;2024-03-02T08:40:52;15.10;99.90
55830;DHT22;41759;53.330;6.002;2024-03-02T08:43:17;15.30;99.90
55830;DHT22;41759;53.330;6.002;2024-03-02T08:45:43;15.70;99.90
55830;DHT22;41759;53.330;6.002;2024-03-02T08:48:10;15.10;99.90
55830;DHT22;41759;53.330;6.002;2024-03-02T08:50:36;14.20;99.90
55830;DHT22;41759;53.330;6.002;2024-03-02T08:53:03;13.50;99.90
55830;DHT22;41759;53.330;6.002;2024-03-02T08:55:29;12.80;99.90
55830;DHT22;41759;53.330;6.002;2024-03-02T08:57:55;12.40;99.90
55830;DHT22;41759;53.330;6.002;2024-03-02T09:00:21;11.80;99.90
55830;DHT22;41759;53.330;6.002;2024-03-02T09:02:47;11.40;99.90
55830;DHT22;41759;53.330;6.002;2024-03-02T09:05:13;11.20;99.90
55830;DHT22;41759;53.330;6.002;2024-03-02T09:07:39;11.00;99.90
55830;DHT22;41759;53.330;6.002;2024-03-02T09:10:05;10.70;99.90
55830;DHT22;41759;53.330;6.002;2024-03-02T09:12:32;10.90;99.90
55830;DHT22;41759;53.330;6.002;2024-03-02T09:14:58;11.00;99.90
55830;DHT22;41759;53.330;6.002;2024-03-02T09:17:24;11.10;99.90
55830;DHT22;41759;53.330;6.002;2024-03-02T09:19:49;10.90;99.90
55830;DHT22;41759;53.330;6.002;2024-03-02T09:22:19;10.70;99.90
55830;DHT22;41759;53.330;6.002;2024-03-02T09:24:44;10.50;99.90
55830;DHT22;41759;53.330;6.002;2024-03-02T09:27:10;10.40;99.90
55830;DHT22;41759;53.330;6.002;2024-03-02T09:29:36;10.20;99.90
55830;DHT22;41759;53.330;6.002;2024-03-02T09:32:02;10.30;99.90
55830;DHT22;41759;53.330;6.002;2024-03-02T09:34:27;10.30;99.90
55830;DHT22;41759;53.330;6.002;2024-03-02T09:36:53;10.50;99.90
55830;DHT22;41759;53.330;6.002;2024-03-02T09:39:19;10.40;99.90
55830;DHT22;41759;53.330;6.002;2024-03-02T09:41:45;10.50;99.90
55830;DHT22;41759;53.330;6.002;2024-03-02T09:44:11;10.60;99.90
55830;DHT22;41759;53.330;6.002;2024-03-02T09:46:36;11.00;99.90
55830;DHT22;41759;53.330;6.002;2024-03-02T09:49:02;11.50;99.90
55830;DHT22;41759;53.330;6.002;2024-03-02T09:51:28;11.80;99.90
55830;DHT22;41759;53.330;6.002;2024-03-02T09:53:55;12.00;99.90
55830;DHT22;41759;53.330;6.002;2024-03-02T09:56:21;11.80;99.90
55830;DHT22;41759;53.330;6.002;2024-03-02T09:58:47;11.70;99.90
55830;DHT22;41759;53.330;6.002;2024-03-02T10:01:13;11.80;99.90
55830;DHT22;41759;53.330;6.002;2024-03-02T10:03:39;11.90;99.90
55830;DHT22;41759;53.330;6.002;2024-03-02T10:06:27;12.10;99.90
55830;DHT22;41759;53.330;6.002;2024-03-02T10:08:54;12.60;99.90
55830;DHT22;41759;53.330;6.002;2024-03-02T10:11:31;12.90;99.90
55830;DHT22;41759;53.330;6.002;2024-03-02T10:14:11;13.40;99.90
55830;DHT22;41759;53.330;6.002;2024-03-02T10:16:42;13.70;99.90
55830;DHT22;41759;53.330;6.002;2024-03-02T10:19:16;13.80;99.90
55830;DHT22;41759;53.330;6.002;2024-03-02T10:21:43;13.50;99.90
55830;DHT22;41759;53.330;6.002;2024-03-02T10:24:09;13.20;99.90
55830;DHT22;41759;53.330;6.002;2024-03-02T10:26:35;13.00;99.90
55830;DHT22;41759;53.330;6.002;2024-03-02T10:29:00;12.90;99.90
55830;DHT22;41759;53.330;6.002;2024-03-02T10:31:28;13.00;99.90
55830;DHT22;41759;53.330;6.002;2024-03-02T10:33:57;12.90;99.90
55830;DHT22;41759;53.330;6.002;2024-03-02T10:36:23;12.70;99.90
55830;DHT22;41759;53.330;6.002;2024-03-02T10:38:52;12.70;99.90
55830;DHT22;41759;53.330;6.002;2024-03-02T10:41:23;12.70;99.90
55830;DHT22;41759;53.330;6.002;2024-03-02T10:43:53;12.70;99.90
55830;DHT22;41759;53.330;6.002;2024-03-02T10:46:28;12.70;99.90
55830;DHT22;41759;53.330;6.002;2024-03-02T10:49:01;13.10;99.90
55830;DHT22;41759;53.330;6.002;2024-03-02T10:51:29;13.90;99.90
55830;DHT22;41759;53.330;6.002;2024-03-02T10:53:58;14.40;99.90
55830;DHT22;41759;53.330;6.002;2024-03-02T10:56:40;14.70;99.90
55830;DHT22;41759;53.330;6.002;2024-03-02T11:02:03;15.60;99.90
55830;DHT22;41759;53.330;6.002;2024-03-02T11:04:30;15.70;99.90
55830;DHT22;41759;53.330;6.002;2024-03-02T11:07:07;16.10;99.90
55830;DHT22;41759;53.330;6.002;2024-03-02T11:09:35;16.20;99.90
55830;DHT22;41759;53.330;6.002;2024-03-02T11:12:12;15.60;99.90
55830;DHT22;41759;53.330;6.002;2024-03-02T11:14:41;14.90;99.90
55830;DHT22;41759;53.330;6.002;2024-03-02T11:17:11;14.30;99.90
55830;DHT22;41759;53.330;6.002;2024-03-02T11:19:39;13.90;99.90
55830;DHT22;41759;53.330;6.002;2024-03-02T11:22:06;13.60;99.90
55830;DHT22;41759;53.330;6.002;2024-03-02T11:24:33;13.50;99.90
55830;DHT22;41759;53.330;6.002;2024-03-02T11:27:03;13.30;99.90
55830;DHT22;41759;53.330;6.002;2024-03-02T11:34:34;13.00;99.90
55830;DHT22;41759;53.330;6.002;2024-03-02T11:37:03;13.00;99.90
55830;DHT22;41759;53.330;6.002;2024-03-02T11:39:30;13.00;99.90
55830;DHT22;41759;53.330;6.002;2024-03-02T11:41:59;13.00;99.90
55830;DHT22;41759;53.330;6.002;2024-03-02T11:44:28;12.90;99.90
55830;DHT22;41759;53.330;6.002;2024-03-02T11:47:01;12.80;99.90
55830;DHT22;41759;53.330;6.002;2024-03-02T11:49:48;12.60;99.90
55830;DHT22;41759;53.330;6.002;2024-03-02T11:52:15;12.70;99.90
55830;DHT22;41759;53.330;6.002;2024-03-02T11:54:44;12.60;99.90
55830;DHT22;41759;53.330;6.002;2024-03-02T11:57:20;12.50;99.90
55830;DHT22;41759;53.330;6.002;2024-03-02T11:59:47;12.50;99.90
55830;DHT22;41759;53.330;6.002;2024-03-02T12:02:17;12.50;99.90
55830;DHT22;41759;53.330;6.002;2024-03-02T12:04:43;12.50;99.90
55830;DHT22;41759;53.330;6.002;2024-03-02T12:07:10;12.50;99.90
55830;DHT22;41759;53.330;6.002;2024-03-02T12:09:36;12.60;99.90
55830;DHT22;41759;53.330;6.002;2024-03-02T12:12:09;12.70;99.90
55830;DHT22;41759;53.330;6.002;2024-03-02T12:14:36;12.80;99.90
55830;DHT22;41759;53.330;6.002;2024-03-02T12:17:04;12.70;99.90
55830;DHT22;41759;53.330;6.002;2024-03-02T12:19:30;12.60;99.90
55830;DHT22;41759;53.330;6.002;2024-03-02T12:21:57;12.40;99.90
55830;DHT22;41759;53.330;6.002;2024-03-02T12:24:23;12.30;99.90
55830;DHT22;41759;53.330;6.002;2024-03-02T12:26:50;12.30;99.90
55830;DHT22;41759;53.330;6.002;2024-03-02T12:29:18;12.30;99.90
55830;DHT22;41759;53.330;6.002;2024-03-02T12:31:44;12.40;99.90
55830;DHT22;41759;53.330;6.002;2024-03-02T12:34:13;13.10;99.90
55830;DHT22;41759;53.330;6.002;2024-03-02T12:36:39;12.50;99.90
55830;DHT22;41759;53.330;6.002;2024-03-02T12:39:07;12.60;99.90
55830;DHT22;41759;53.330;6.002;2024-03-02T12:41:38;12.70;99.90
55830;DHT22;41759;53.330;6.002;2024-03-02T12:44:05;12.70;99.90
55830;DHT22;41759;53.330;6.002;2024-03-02T12:46:34;12.80;99.90
55830;DHT22;41759;53.330;6.002;2024-03-02T12:49:14;12.80;99.90
55830;DHT22;41759;53.330;6.002;2024-03-02T12:51:42;12.70;99.90
55830;DHT22;41759;53.330;6.002;2024-03-02T12:54:11;12.60;99.90
55830;DHT22;41759;53.330;6.002;2024-03-02T12:56:37;12.50;99.90
55830;DHT22;41759;53.330;6.002;2024-03-02T12:59:04;12.40;99.90
55830;DHT22;41759;53.330;6.002;2024-03-02T13:01:30;12.30;99.90
55830;DHT22;41759;53.330;6.002;2024-03-02T13:03:58;12.20;99.90
55830;DHT22;41759;53.330;6.002;2024-03-02T13:06:24;12.10;99.90
55830;DHT22;41759;53.330;6.002;2024-03-02T13:08:53;12.10;99.90
55830;DHT22;41759;53.330;6.002;2024-03-02T13:11:18;12.00;99.90
55830;DHT22;41759;53.330;6.002;2024-03-02T13:13:45;12.00;99.90
55830;DHT22;41759;53.330;6.002;2024-03-02T13:16:11;12.10;99.90
55830;DHT22;41759;53.330;6.002;2024-03-02T13:18:41;12.20;99.90
55830;DHT22;41759;53.330;6.002;2024-03-02T13:21:08;12.20;99.90
55830;DHT22;41759;53.330;6.002;2024-03-02T13:23:34;12.20;99.90
55830;DHT22;41759;53.330;6.002;2024-03-02T13:25:59;12.20;99.90
55830;DHT22;41759;53.330;6.002;2024-03-02T13:28:25;12.20;99.90
55830;DHT22;41759;53.330;6.002;2024-03-02T13:30:51;12.20;99.90
55830;DHT22;41759;53.330;6.002;2024-03-02T13:33:17;12.30;99.90
55830;DHT22;41759;53.330;6.002;2024-03-02T13:35:49;12.20;99.90
55830;DHT22;41759;53.330;6.002;2024-03-02T13:38:19;12.30;99.90
55830;DHT22;41759;53.330;6.002;2024-03-02T13:40:45;12.30;99.90
55830;DHT22;41759;53.330;6.002;2024-03-02T13:43:11;12.30;99.90
55830;DHT22;41759;53.330;6.002;2024-03-02T13:45:38;12.20;99.90
55830;DHT22;41759;53.330;6.002;2024-03-02T13:48:04;12.30;99.90
55830;DHT22;41759;53.330;6.002;2024-03-02T13:50:30;12.30;99.90
55830;DHT22;41759;53.330;6.002;2024-03-02T13:52:56;12.20;99.90
55830;DHT22;41759;53.330;6.002;2024-03-02T13:55:22;12.30;99.90
55830;DHT22;41759;53.330;6.002;2024-03-02T13:57:48;12.20;99.90
55830;DHT22;41759;53.330;6.002;2024-03-02T14:00:16;12.30;99.90
55830;DHT22;41759;53.330;6.002;2024-03-02T14:02:43;12.30;99.90
55830;DHT22;41759;53.330;6.002;2024-03-02T14:05:08;12.30;99.90
55830;DHT22;41759;53.330;6.002;2024-03-02T14:07:43;12.20;99.90
55830;DHT22;41759;53.330;6.002;2024-03-02T14:10:11;12.30;99.90
55830;DHT22;41759;53.330;6.002;2024-03-02T14:12:37;12.30;99.90
55830;DHT22;41759;53.330;6.002;2024-03-02T14:15:03;12.20;99.90
55830;DHT22;41759;53.330;6.002;2024-03-02T14:17:30;12.20;99.90
55830;DHT22;41759;53.330;6.002;2024-03-02T14:19:57;12.20;99.90
55830;DHT22;41759;53.330;6.002;2024-03-02T14:22:24;12.30;99.90
55830;DHT22;41759;53.330;6.002;2024-03-02T14:24:50;12.30;99.90
55830;DHT22;41759;53.330;6.002;2024-03-02T14:27:16;12.40;99.90
55830;DHT22;41759;53.330;6.002;2024-03-02T14:29:45;12.40;99.90
55830;DHT22;41759;53.330;6.002;2024-03-02T14:32:11;12.50;99.90
55830;DHT22;41759;53.330;6.002;2024-03-02T14:34:36;12.60;99.90
55830;DHT22;41759;53.330;6.002;2024-03-02T14:37:02;12.60;99.90
55830;DHT22;41759;53.330;6.002;2024-03-02T14:39:28;12.70;99.90
55830;DHT22;41759;53.330;6.002;2024-03-02T14:41:54;12.80;99.90
55830;DHT22;41759;53.330;6.002;2024-03-02T14:44:21;12.80;99.90
55830;DHT22;41759;53.330;6.002;2024-03-02T14:46:48;12.80;99.90
55830;DHT22;41759;53.330;6.002;2024-03-02T14:49:14;12.70;99.90
55830;DHT22;41759;53.330;6.002;2024-03-02T14:51:40;12.70;99.90
55830;DHT22;41759;53.330;6.002;2024-03-02T14:54:06;12.60;99.90
55830;DHT22;41759;53.330;6.002;2024-03-02T14:56:32;12.60;99.90
55830;DHT22;41759;53.330;6.002;2024-03-02T14:58:57;12.50;99.90
55830;DHT22;41759;53.330;6.002;2024-03-02T15:01:23;12.40;99.90
55830;DHT22;41759;53.330;6.002;2024-03-02T15:03:50;12.30;99.90
55830;DHT22;41759;53.330;6.002;2024-03-02T15:06:16;12.20;99.90
55830;DHT22;41759;53.330;6.002;2024-03-02T15:08:42;12.20;99.90
55830;DHT22;41759;53.330;6.002;2024-03-02T15:11:08;12.20;99.90
55830;DHT22;41759;53.330;6.002;2024-03-02T15:13:34;12.20;99.90
55830;DHT22;41759;53.330;6.002;2024-03-02T15:16:00;12.20;99.90
55830;DHT22;41759;53.330;6.002;2024-03-02T15:18:25;12.20;99.90
55830;DHT22;41759;53.330;6.002;2024-03-02T15:20:52;12.20;99.90
55830;DHT22;41759;53.330;6.002;2024-03-02T15:23:18;12.80;99.90
55830;DHT22;41759;53.330;6.002;2024-03-02T15:25:43;12.20;99.90
55830;DHT22;41759;53.330;6.002;2024-03-02T15:28:09;12.10;99.90
55830;DHT22;41759;53.330;6.002;2024-03-02T15:30:35;12.10;99.90
55830;DHT22;41759;53.330;6.002;2024-03-02T15:33:03;12.10;99.90
55830;DHT22;41759;53.330;6.002;2024-03-02T15:35:29;12.00;99.90
55830;DHT22;41759;53.330;6.002;2024-03-02T15:37:54;11.90;99.90
55830;DHT22;41759;53.330;6.002;2024-03-02T15:40:20;11.90;99.90
55830;DHT22;41759;53.330;6.002;2024-03-02T15:42:46;11.80;99.90
55830;DHT22;41759;53.330;6.002;2024-03-02T15:45:11;11.70;99.90